Time;durP1;ratioP1;P1;durP2;ratioP2;P2;SDS_P1;SDS_P2;PMS_P1;PMS_P2;Temp;Humidity;BMP_temperature;BMP_pressure;BME280_temperature;BME280_humidity;BME280_pressure;Samples;Min_cycle;Max_cycle;Signal;HPM_P1;HPM_P2
2022/10/27 04:00:43;;;;;;;3.50;3.20;;;;;;;;;;5914138;22;20445;-84
2022/10/27 04:03:12;;;;;;;3.97;3.03;;;;;;;;;;5019693;28;20488;-84
2022/10/27 04:05:38;;;;;;;4.88;3.63;;;;;;;;;;5008713;28;20392;-84
2022/10/27 04:08:04;;;;;;;3.70;3.25;;;;;;;;;;5014030;28;20869;-84
2022/10/27 04:10:30;;;;;;;3.78;3.47;;;;;;;;;;5015271;28;20404;-83
2022/10/27 04:12:57;;;;;;;7.53;3.70;;;;;;;;;;5027043;28;20441;-83
2022/10/27 04:15:23;;;;;;;3.45;3.15;;;;;;;;;;5017670;28;20384;-84
2022/10/27 04:17:52;;;;;;;3.50;3.20;;;;;;;;;;5033586;28;20454;-83
2022/10/27 04:20:18;;;;;;;4.68;3.35;;;;;;;;;;5023301;28;20472;-83
2022/10/27 04:22:44;;;;;;;5.70;3.42;;;;;;;;;;5025195;28;20484;-83
2022/10/27 04:25:10;;;;;;;6.32;3.40;;;;;;;;;;5007243;28;20392;-83
2022/10/27 04:27:36;;;;;;;5.18;3.20;;;;;;;;;;5020722;28;20396;-83
2022/10/27 04:30:02;;;;;;;3.38;3.08;;;;;;;;;;5028704;28;20383;-83
2022/10/27 04:32:28;;;;;;;4.75;3.35;;;;;;;;;;5019095;28;20388;-84
2022/10/27 04:34:56;;;;;;;3.70;2.97;;;;;;;;;;5033235;28;20375;-84
2022/10/27 04:37:22;;;;;;;4.22;3.20;;;;;;;;;;5014785;28;20421;-84
2022/10/27 04:39:48;;;;;;;5.03;3.43;;;;;;;;;;5033119;28;20478;-83
2022/10/27 04:42:14;;;;;;;4.03;3.40;;;;;;;;;;5032944;28;20387;-84
2022/10/27 04:44:44;;;;;;;3.97;3.60;;;;;;;;;;5034228;28;20765;-83
2022/10/27 04:47:13;;;;;;;4.10;3.10;;;;;;;;;;5015305;28;20387;-84
2022/10/27 04:49:39;;;;;;;3.92;3.25;;;;;;;;;;5033355;28;20788;-84
2022/10/27 04:52:05;;;;;;;4.43;3.28;;;;;;;;;;5032931;28;20387;-84
2022/10/27 04:54:34;;;;;;;3.60;3.20;;;;;;;;;;5032953;28;20410;-84
2022/10/27 04:57:02;;;;;;;3.83;3.25;;;;;;;;;;5026845;28;20924;-84
2022/10/27 04:59:28;;;;;;;5.20;3.40;;;;;;;;;;5033144;28;20413;-84
2022/10/27 05:01:54;;;;;;;4.28;3.17;;;;;;;;;;5032767;28;20399;-84
2022/10/27 05:04:20;;;;;;;3.40;3.10;;;;;;;;;;5014957;28;20399;-83
2022/10/27 05:06:46;;;;;;;3.67;3.30;;;;;;;;;;5032755;28;20737;-83
2022/10/27 05:09:15;;;;;;;4.55;3.47;;;;;;;;;;5032591;28;20383;-84
2022/10/27 05:11:43;;;;;;;4.57;3.35;;;;;;;;;;5032678;28;20378;-83
2022/10/27 05:14:09;;;;;;;4.45;3.55;;;;;;;;;;5032703;28;20853;-84
2022/10/27 05:16:35;;;;;;;4.03;3.60;;;;;;;;;;5032792;28;20387;-84
2022/10/27 05:19:01;;;;;;;4.57;3.40;;;;;;;;;;5032860;28;20383;-83
2022/10/27 05:21:27;;;;;;;5.82;3.63;;;;;;;;;;5032370;28;20406;-83
2022/10/27 05:23:53;;;;;;;6.75;3.92;;;;;;;;;;5026722;28;20407;-84
2022/10/27 05:26:22;;;;;;;5.57;3.50;;;;;;;;;;5034764;28;20438;-84
2022/10/27 05:28:48;;;;;;;7.37;3.53;;;;;;;;;;5023992;28;20374;-84
2022/10/27 05:31:14;;;;;;;5.15;3.85;;;;;;;;;;5028568;28;20405;-84
2022/10/27 05:33:43;;;;;;;5.22;3.60;;;;;;;;;;5032322;28;20419;-84
2022/10/27 05:36:09;;;;;;;5.13;3.93;;;;;;;;;;5032294;28;20379;-84
2022/10/27 05:38:37;;;;;;;5.07;4.10;;;;;;;;;;5023382;28;20402;-85
2022/10/27 05:41:03;;;;;;;4.03;3.70;;;;;;;;;;5030751;28;20425;-85
2022/10/27 05:43:29;;;;;;;4.85;3.50;;;;;;;;;;5028961;28;20911;-84
2022/10/27 05:45:55;;;;;;;4.70;3.42;;;;;;;;;;5021045;28;20383;-84
2022/10/27 05:48:21;;;;;;;5.05;3.70;;;;;;;;;;5031291;28;20470;-85
2022/10/27 05:50:51;;;;;;;4.05;3.42;;;;;;;;;;5031040;28;20450;-85
2022/10/27 05:53:17;;;;;;;3.50;3.20;;;;;;;;;;5031268;28;20390;-85
2022/10/27 05:55:43;;;;;;;4.53;3.30;;;;;;;;;;5028441;28;20376;-85
2022/10/27 05:58:10;;;;;;;4.75;3.63;;;;;;;;;;5025208;28;20732;-85
2022/10/27 06:00:37;;;;;;;6.55;3.58;;;;;;;;;;5021007;28;20385;-86
2022/10/27 06:03:04;;;;;;;4.78;3.58;;;;;;;;;;5009923;28;20913;-86
2022/10/27 06:05:31;;;;;;;3.80;3.40;;;;;;;;;;5020887;28;20391;-86
2022/10/27 06:07:57;;;;;;;3.83;3.40;;;;;;;;;;5031001;28;20383;-86
2022/10/27 06:10:23;;;;;;;4.03;3.50;;;;;;;;;;5029260;28;20552;-87
2022/10/27 06:12:50;;;;;;;5.25;3.70;;;;;;;;;;5026321;28;20869;-87
2022/10/27 06:15:16;;;;;;;6.65;5.53;;;;;;;;;;5024179;28;20387;-86
2022/10/27 06:17:42;;;;;;;5.85;4.72;;;;;;;;;;5030928;28;20383;-85
2022/10/27 06:20:08;;;;;;;5.25;4.70;;;;;;;;;;5013136;28;20517;-86
2022/10/27 06:22:34;;;;;;;5.80;4.20;;;;;;;;;;5030844;28;20422;-85
2022/10/27 06:25:00;;;;;;;5.00;4.55;;;;;;;;;;5004894;28;20893;-85
2022/10/27 06:27:26;;;;;;;4.70;3.80;;;;;;;;;;5030308;28;20394;-85
2022/10/27 06:29:52;;;;;;;5.60;3.30;;;;;;;;;;5027059;28;20381;-84
2022/10/27 06:32:18;;;;;;;4.07;3.50;;;;;;;;;;5004865;28;20962;-84
2022/10/27 06:34:44;;;;;;;5.87;3.40;;;;;;;;;;5030196;28;20417;-84
2022/10/27 06:37:10;;;;;;;5.05;3.30;;;;;;;;;;5030141;28;20384;-84
2022/10/27 06:39:37;;;;;;;7.05;3.90;;;;;;;;;;5028377;28;20390;-84
2022/10/27 06:42:03;;;;;;;5.50;3.40;;;;;;;;;;5026119;28;20439;-83
2022/10/27 06:44:31;;;;;;;3.90;3.45;;;;;;;;;;5031016;28;20427;-84
2022/10/27 06:47:07;;;;;;;4.60;3.93;;;;;;;;;;5026235;28;20507;-84
2022/10/27 06:49:36;;;;;;;4.68;3.88;;;;;;;;;;5028339;28;20900;-83
2022/10/27 06:52:02;;;;;;;5.60;4.30;;;;;;;;;;5035133;28;20473;-85
2022/10/27 06:54:31;;;;;;;4.97;4.30;;;;;;;;;;5022595;28;20983;-81
2022/10/27 06:56:57;;;;;;;5.13;3.88;;;;;;;;;;5035128;28;20797;-82
2022/10/27 06:59:23;;;;;;;8.47;4.40;;;;;;;;;;5035323;28;20375;-82
2022/10/27 07:01:49;;;;;;;4.50;4.10;;;;;;;;;;5034803;28;20764;-82
2022/10/27 07:04:15;;;;;;;4.50;3.92;;;;;;;;;;5034992;28;20919;-83
2022/10/27 07:06:47;;;;;;;5.82;3.75;;;;;;;;;;5031258;28;20375;-83
2022/10/27 07:09:13;;;;;;;4.47;4.07;;;;;;;;;;5034882;28;20458;-85
2022/10/27 07:11:42;;;;;;;6.97;4.07;;;;;;;;;;5034855;28;20386;-85
2022/10/27 07:14:08;;;;;;;6.32;4.10;;;;;;;;;;5031398;28;20426;-84
2022/10/27 07:16:37;;;;;;;6.97;4.03;;;;;;;;;;5022502;28;20894;-84
2022/10/27 07:19:06;;;;;;;5.70;4.18;;;;;;;;;;5024392;28;20962;-84
2022/10/27 07:21:32;;;;;;;5.55;4.45;;;;;;;;;;5033509;28;20391;-84
2022/10/27 07:23:58;;;;;;;5.18;4.68;;;;;;;;;;5021021;28;20920;-84
2022/10/27 07:26:24;;;;;;;6.72;5.32;;;;;;;;;;5020957;28;20379;-84
2022/10/27 07:28:50;;;;;;;6.25;4.97;;;;;;;;;;5030711;28;20464;-83
2022/10/27 07:31:21;;;;;;;6.18;5.10;;;;;;;;;;5024453;28;20912;-84
2022/10/27 07:33:47;;;;;;;6.07;4.22;;;;;;;;;;5034537;28;20379;-84
2022/10/27 07:36:13;;;;;;;6.57;4.78;;;;;;;;;;5034362;28;20383;-84
2022/10/27 07:38:45;;;;;;;7.68;5.15;;;;;;;;;;5030587;28;20756;-83
2022/10/27 07:41:10;;;;;;;5.15;4.00;;;;;;;;;;5034338;28;20386;-84
2022/10/27 07:43:38;;;;;;;5.80;5.00;;;;;;;;;;5034146;28;20419;-84
2022/10/27 07:46:04;;;;;;;7.20;5.03;;;;;;;;;;5034239;28;20485;-85
2022/10/27 07:48:32;;;;;;;5.57;4.77;;;;;;;;;;5034271;28;20586;-84
2022/10/27 07:50:58;;;;;;;5.90;4.63;;;;;;;;;;5034148;28;20387;-85
2022/10/27 07:53:24;;;;;;;6.25;4.90;;;;;;;;;;5034099;28;20383;-84
2022/10/27 07:55:51;;;;;;;4.78;4.22;;;;;;;;;;5034143;28;20393;-84
2022/10/27 07:58:22;;;;;;;5.22;4.50;;;;;;;;;;5034375;28;20387;-82
2022/10/27 08:00:48;;;;;;;6.53;4.65;;;;;;;;;;5027533;28;20963;-84
2022/10/27 08:03:20;;;;;;;7.78;4.85;;;;;;;;;;5032833;28;20450;-84
2022/10/27 08:05:49;;;;;;;8.88;5.20;;;;;;;;;;5016183;28;20811;-83
2022/10/27 08:08:19;;;;;;;6.97;5.00;;;;;;;;;;5022597;28;20387;-83
2022/10/27 08:10:45;;;;;;;7.05;4.70;;;;;;;;;;5033751;28;20810;-84
2022/10/27 08:13:12;;;;;;;5.47;4.97;;;;;;;;;;5029904;28;20425;-84
2022/10/27 08:15:45;;;;;;;8.43;5.13;;;;;;;;;;5017880;28;20389;-83
2022/10/27 08:18:13;;;;;;;6.22;5.45;;;;;;;;;;5031454;28;20387;-83
2022/10/27 08:20:46;;;;;;;5.63;4.78;;;;;;;;;;5033579;28;20398;-83
2022/10/27 08:23:14;;;;;;;6.65;4.97;;;;;;;;;;5033091;28;20422;-83
2022/10/27 08:25:43;;;;;;;6.65;5.13;;;;;;;;;;5033539;28;20951;-83
2022/10/27 08:28:10;;;;;;;7.27;4.50;;;;;;;;;;5033379;28;20476;-84
2022/10/27 08:30:36;;;;;;;8.95;5.35;;;;;;;;;;5029970;28;20861;-83
2022/10/27 08:33:12;;;;;;;7.05;4.78;;;;;;;;;;5025884;28;20395;-83
2022/10/27 08:35:39;;;;;;;8.50;4.15;;;;;;;;;;5033626;28;20437;-83
2022/10/27 08:38:12;;;;;;;6.65;4.68;;;;;;;;;;5033394;28;20379;-83
2022/10/27 08:40:46;;;;;;;6.27;4.50;;;;;;;;;;5033243;28;20409;-83
2022/10/27 08:43:27;;;;;;;6.47;4.47;;;;;;;;;;5032885;28;20407;-83
2022/10/27 08:45:56;;;;;;;6.85;4.97;;;;;;;;;;5033439;28;20375;-83
2022/10/27 08:48:24;;;;;;;6.53;5.80;;;;;;;;;;5015253;28;20917;-84
2022/10/27 08:50:53;;;;;;;7.47;5.75;;;;;;;;;;5032902;28;20379;-82
2022/10/27 08:53:24;;;;;;;9.13;5.63;;;;;;;;;;5032955;28;20387;-82
2022/10/27 08:56:00;;;;;;;9.55;5.65;;;;;;;;;;5033264;28;20387;-83
2022/10/27 08:58:41;;;;;;;10.10;5.93;;;;;;;;;;5032887;28;20449;-86
2022/10/27 09:01:16;;;;;;;8.68;5.50;;;;;;;;;;5032600;28;20395;-86
2022/10/27 09:03:50;;;;;;;5.32;4.82;;;;;;;;;;5032476;28;20910;-85
2022/10/27 09:06:23;;;;;;;5.70;4.60;;;;;;;;;;5027133;28;20378;-85
2022/10/27 09:09:01;;;;;;;7.35;5.13;;;;;;;;;;5027106;28;20729;-85
2022/10/27 09:11:51;;;;;;;9.98;5.47;;;;;;;;;;5022927;28;20391;-84
2022/10/27 09:14:20;;;;;;;8.47;4.90;;;;;;;;;;5031757;28;20379;-84
2022/10/27 09:16:50;;;;;;;6.72;5.00;;;;;;;;;;5024790;28;20421;-85
2022/10/27 09:19:23;;;;;;;8.65;4.88;;;;;;;;;;5032513;28;20385;-85
2022/10/27 09:21:50;;;;;;;6.93;5.13;;;;;;;;;;5032430;28;20386;-85
2022/10/27 09:24:18;;;;;;;8.80;5.47;;;;;;;;;;5032410;28;20407;-85
2022/10/27 09:26:45;;;;;;;6.97;5.00;;;;;;;;;;5027536;28;20387;-84
2022/10/27 09:29:14;;;;;;;8.23;5.57;;;;;;;;;;5021848;28;20375;-83
2022/10/27 09:31:46;;;;;;;8.85;5.70;;;;;;;;;;5023739;28;20403;-84
2022/10/27 09:34:18;;;;;;;9.05;5.95;;;;;;;;;;5031867;28;20474;-85
2022/10/27 09:36:44;;;;;;;10.35;6.63;;;;;;;;;;5029118;28;20392;-84
2022/10/27 09:39:13;;;;;;;9.00;6.57;;;;;;;;;;5023035;28;20383;-84
2022/10/27 09:41:39;;;;;;;12.80;7.35;;;;;;;;;;5032275;28;20390;-84
2022/10/27 09:44:14;;;;;;;11.00;7.70;;;;;;;;;;5032076;28;20411;-84
2022/10/27 09:46:46;;;;;;;10.38;7.50;;;;;;;;;;5014472;28;20466;-83
2022/10/27 09:49:13;;;;;;;11.23;7.90;;;;;;;;;;5010613;28;20421;-84
2022/10/27 09:51:45;;;;;;;9.88;7.03;;;;;;;;;;5014320;28;20876;-84
2022/10/27 09:54:29;;;;;;;9.05;6.05;;;;;;;;;;5032266;28;20815;-83
2022/10/27 09:57:04;;;;;;;9.65;6.20;;;;;;;;;;5032020;28;20386;-85
2022/10/27 09:59:31;;;;;;;9.27;5.60;;;;;;;;;;5031895;28;20391;-84
2022/10/27 10:01:58;;;;;;;7.13;4.60;;;;;;;;;;5031842;28;20411;-84
2022/10/27 10:04:32;;;;;;;9.23;5.43;;;;;;;;;;5024348;28;20459;-84
2022/10/27 10:07:02;;;;;;;8.23;6.10;;;;;;;;;;5031946;28;20421;-85
2022/10/27 10:09:31;;;;;;;10.13;6.93;;;;;;;;;;5026404;28;20388;-84
2022/10/27 10:12:16;;;;;;;12.73;7.35;;;;;;;;;;5014149;28;20379;-85
2022/10/27 10:14:42;;;;;;;11.35;7.07;;;;;;;;;;5031903;28;20803;-84
2022/10/27 10:17:26;;;;;;;9.40;6.18;;;;;;;;;;5031947;28;20390;-83
2022/10/27 10:19:59;;;;;;;7.97;5.80;;;;;;;;;;5031712;28;20383;-84
2022/10/27 10:22:36;;;;;;;8.65;5.65;;;;;;;;;;5031857;28;20383;-83
2022/10/27 10:25:22;;;;;;;8.55;5.90;;;;;;;;;;5035065;28;20376;-84
2022/10/27 10:28:02;;;;;;;10.68;5.65;;;;;;;;;;5018023;28;20386;-84
2022/10/27 10:30:41;;;;;;;6.95;4.55;;;;;;;;;;5035455;28;20418;-84
2022/10/27 10:33:16;;;;;;;7.38;4.80;;;;;;;;;;5035742;28;20382;-85
2022/10/27 10:35:42;;;;;;;6.90;4.30;;;;;;;;;;5025617;28;20891;-83
2022/10/27 10:38:23;;;;;;;6.85;3.97;;;;;;;;;;5035503;28;20415;-85
2022/10/27 10:40:58;;;;;;;5.60;3.80;;;;;;;;;;5035336;28;20379;-84
2022/10/27 10:43:24;;;;;;;7.18;3.70;;;;;;;;;;5035372;28;20916;-83
2022/10/27 10:45:54;;;;;;;7.55;4.13;;;;;;;;;;5035521;28;20402;-83
2022/10/27 10:48:46;;;;;;;6.43;4.13;;;;;;;;;;5035389;28;20391;-84
2022/10/27 10:51:13;;;;;;;7.72;3.90;;;;;;;;;;5030766;28;20387;-84
2022/10/27 10:53:51;;;;;;;7.95;4.60;;;;;;;;;;5035849;28;20409;-83
2022/10/27 10:56:19;;;;;;;7.78;4.57;;;;;;;;;;5035264;28;20379;-85
2022/10/27 10:58:49;;;;;;;8.73;4.95;;;;;;;;;;5035138;28;20438;-85
2022/10/27 11:01:16;;;;;;;16.08;5.38;;;;;;;;;;5034764;28;20391;-83
2022/10/27 11:03:44;;;;;;;10.13;5.60;;;;;;;;;;5035005;28;20430;-83
2022/10/27 11:06:18;;;;;;;9.40;5.20;;;;;;;;;;5034908;28;20517;-83
2022/10/27 11:08:51;;;;;;;9.50;5.40;;;;;;;;;;5034956;28;20383;-84
2022/10/27 11:11:21;;;;;;;6.22;4.35;;;;;;;;;;5034831;28;20374;-84
2022/10/27 11:13:52;;;;;;;7.10;4.22;;;;;;;;;;5035158;28;20394;-85
2022/10/27 11:16:18;;;;;;;10.88;4.30;;;;;;;;;;5034698;28;20383;-85
2022/10/27 11:19:17;;;;;;;8.47;3.83;;;;;;;;;;5034817;28;20398;-83
2022/10/27 11:21:53;;;;;;;8.93;3.72;;;;;;;;;;4981005;28;20434;-84
2022/10/27 11:24:25;;;;;;;7.50;4.00;;;;;;;;;;5021373;28;20489;-83
2022/10/27 11:26:54;;;;;;;6.60;4.00;;;;;;;;;;5015617;28;20444;-84
2022/10/27 11:29:29;;;;;;;7.63;3.95;;;;;;;;;;5034883;28;20407;-84
2022/10/27 11:32:15;;;;;;;7.57;4.87;;;;;;;;;;5034375;28;20382;-83
2022/10/27 11:34:53;;;;;;;8.38;4.55;;;;;;;;;;5028357;28;20392;-83
2022/10/27 11:37:40;;;;;;;6.40;4.03;;;;;;;;;;5034013;28;20390;-84
2022/10/27 11:40:14;;;;;;;9.43;4.60;;;;;;;;;;5033752;28;20391;-84
2022/10/27 11:42:45;;;;;;;9.38;4.63;;;;;;;;;;5034196;28;20410;-84
2022/10/27 11:45:16;;;;;;;7.25;3.90;;;;;;;;;;5034274;28;20397;-86
2022/10/27 11:47:45;;;;;;;7.05;3.70;;;;;;;;;;5034344;28;20788;-84
2022/10/27 11:50:25;;;;;;;6.43;3.60;;;;;;;;;;5034258;28;20379;-83
2022/10/27 11:52:52;;;;;;;5.82;3.15;;;;;;;;;;5034223;28;20377;-84
2022/10/27 11:55:20;;;;;;;7.22;3.85;;;;;;;;;;5034166;28;20379;-85
2022/10/27 11:58:05;;;;;;;5.32;3.70;;;;;;;;;;5034040;28;20376;-85
2022/10/27 12:00:54;;;;;;;9.07;5.25;;;;;;;;;;5033897;28;20469;-86
2022/10/27 12:03:29;;;;;;;9.20;5.40;;;;;;;;;;5033727;28;20437;-83
2022/10/27 12:06:01;;;;;;;6.13;3.78;;;;;;;;;;5033861;28;20379;-86
2022/10/27 12:08:27;;;;;;;7.47;4.60;;;;;;;;;;5033483;28;20387;-87
2022/10/27 12:11:02;;;;;;;7.45;4.18;;;;;;;;;;5030932;28;20388;-86
2022/10/27 12:13:31;;;;;;;13.17;5.40;;;;;;;;;;5033922;28;20379;-83
2022/10/27 12:15:59;;;;;;;6.50;4.10;;;;;;;;;;5033702;28;20384;-83
2022/10/27 12:18:33;;;;;;;6.43;3.75;;;;;;;;;;5003299;28;20395;-84
2022/10/27 12:21:10;;;;;;;6.60;3.78;;;;;;;;;;5033668;28;20383;-84
2022/10/27 12:23:47;;;;;;;8.20;3.63;;;;;;;;;;5033524;28;20421;-84
2022/10/27 12:26:25;;;;;;;9.00;3.57;;;;;;;;;;5033434;28;20864;-85
2022/10/27 12:28:52;;;;;;;6.07;3.40;;;;;;;;;;5031836;28;20369;-86
2022/10/27 12:31:21;;;;;;;11.27;4.82;;;;;;;;;;5028085;28;20395;-85
2022/10/27 12:33:57;;;;;;;6.88;3.63;;;;;;;;;;5033352;28;20383;-84
2022/10/27 12:36:42;;;;;;;8.27;4.18;;;;;;;;;;5033341;28;20382;-84
2022/10/27 12:39:37;;;;;;;6.13;4.05;;;;;;;;;;5033216;28;20394;-85
2022/10/27 12:42:19;;;;;;;7.43;4.35;;;;;;;;;;5030380;28;20446;-85
2022/10/27 12:45:00;;;;;;;8.47;4.23;;;;;;;;;;5033225;28;20957;-85
2022/10/27 12:47:45;;;;;;;7.33;3.53;;;;;;;;;;5032818;28;20470;-85
2022/10/27 12:50:16;;;;;;;9.20;4.00;;;;;;;;;;5033069;28;20379;-87
2022/10/27 12:52:56;;;;;;;7.72;4.20;;;;;;;;;;5032849;28;20868;-84
2022/10/27 12:55:45;;;;;;;8.90;3.10;;;;;;;;;;5033226;28;20465;-85
2022/10/27 12:58:30;;;;;;;8.90;3.60;;;;;;;;;;5020169;28;20450;-86
2022/10/27 13:01:05;;;;;;;7.05;3.20;;;;;;;;;;5014925;28;20411;-86
2022/10/27 13:03:44;;;;;;;7.82;3.47;;;;;;;;;;5033176;28;20489;-86
2022/10/27 13:06:13;;;;;;;8.40;3.55;;;;;;;;;;5032708;28;20857;-87
2022/10/27 13:09:05;;;;;;;5.65;3.22;;;;;;;;;;5032776;28;20383;-85
2022/10/27 13:11:46;;;;;;;5.90;3.70;;;;;;;;;;5032616;28;20390;-87
2022/10/27 13:14:18;;;;;;;7.82;3.78;;;;;;;;;;5032761;28;20386;-89
2022/10/27 13:16:52;;;;;;;7.32;3.55;;;;;;;;;;5032598;28;20385;-87
2022/10/27 13:19:21;;;;;;;10.65;3.88;;;;;;;;;;5032626;28;20725;-88
2022/10/27 13:21:50;;;;;;;6.47;3.50;;;;;;;;;;5032665;28;20395;-88
2022/10/27 13:24:28;;;;;;;8.75;3.60;;;;;;;;;;5032464;28;20495;-87
2022/10/27 13:27:00;;;;;;;8.57;3.78;;;;;;;;;;5032318;28;20452;-88
2022/10/27 13:29:35;;;;;;;4.57;3.13;;;;;;;;;;5024355;28;20731;-86
2022/10/27 13:32:37;;;;;;;6.03;3.47;;;;;;;;;;5006329;28;20379;-86
2022/10/27 13:35:16;;;;;;;8.23;4.18;;;;;;;;;;5032380;28;20979;-87
2022/10/27 13:37:43;;;;;;;7.32;3.30;;;;;;;;;;5025975;28;20410;-85
2022/10/27 13:40:18;;;;;;;7.47;4.75;;;;;;;;;;5032243;28;20391;-86
2022/10/27 13:42:54;;;;;;;6.82;4.35;;;;;;;;;;5032160;28;20414;-85
2022/10/27 13:45:26;;;;;;;8.73;4.93;;;;;;;;;;5032081;28;20387;-84
2022/10/27 13:48:10;;;;;;;8.98;3.38;;;;;;;;;;5032233;28;20439;-85
2022/10/27 13:50:39;;;;;;;8.38;4.45;;;;;;;;;;5031970;28;20471;-86
2022/10/27 13:53:14;;;;;;;4.95;3.25;;;;;;;;;;5032195;28;20745;-86
2022/10/27 13:55:50;;;;;;;9.47;3.00;;;;;;;;;;5032126;28;20391;-85
2022/10/27 13:58:26;;;;;;;6.97;3.00;;;;;;;;;;5031445;28;20428;-86
2022/10/27 14:01:10;;;;;;;6.85;3.20;;;;;;;;;;5031917;28;22191;-86
2022/10/27 14:03:36;;;;;;;6.57;2.80;;;;;;;;;;5027843;28;20424;-86
2022/10/27 14:06:23;;;;;;;6.88;3.13;;;;;;;;;;5021722;28;20532;-86
2022/10/27 14:08:52;;;;;;;7.78;3.75;;;;;;;;;;4965683;28;20736;-86
2022/10/27 14:11:26;;;;;;;6.05;3.67;;;;;;;;;;5031787;28;20383;-86
2022/10/27 14:13:57;;;;;;;10.88;4.35;;;;;;;;;;5007418;28;20393;-85
2022/10/27 14:16:28;;;;;;;4.32;2.72;;;;;;;;;;5020682;28;20394;-85
2022/10/27 14:19:03;;;;;;;6.30;3.17;;;;;;;;;;5031902;28;20728;-85
2022/10/27 14:21:30;;;;;;;5.47;3.08;;;;;;;;;;5022928;28;20376;-86
2022/10/27 14:24:13;;;;;;;6.00;3.17;;;;;;;;;;5028600;28;20758;-86
2022/10/27 14:26:39;;;;;;;5.75;3.17;;;;;;;;;;5007735;28;20382;-86
2022/10/27 14:29:06;;;;;;;4.78;3.20;;;;;;;;;;5030162;28;20383;-85
2022/10/27 14:31:34;;;;;;;8.23;3.13;;;;;;;;;;4995524;28;20404;-86
2022/10/27 14:34:19;;;;;;;7.27;3.10;;;;;;;;;;4998232;28;21030;-85
2022/10/27 14:36:45;;;;;;;20.48;4.28;;;;;;;;;;5010704;28;20455;-85
2022/10/27 14:39:11;;;;;;;6.95;2.72;;;;;;;;;;5014661;28;20409;-86
2022/10/27 14:41:38;;;;;;;6.90;3.03;;;;;;;;;;5009307;28;20887;-86
2022/10/27 14:44:08;;;;;;;5.88;2.90;;;;;;;;;;5010013;28;20563;-85
2022/10/27 14:46:45;;;;;;;7.63;3.08;;;;;;;;;;5007316;28;20387;-85
2022/10/27 14:49:16;;;;;;;4.37;2.87;;;;;;;;;;5014745;28;20406;-86
2022/10/27 14:51:45;;;;;;;7.32;3.22;;;;;;;;;;5021965;28;20409;-84
2022/10/27 14:54:17;;;;;;;6.57;2.80;;;;;;;;;;5005002;28;20405;-85
2022/10/27 14:56:46;;;;;;;7.82;2.97;;;;;;;;;;5019685;28;20398;-85
2022/10/27 14:59:28;;;;;;;7.90;2.88;;;;;;;;;;5030097;28;20437;-86
2022/10/27 15:01:57;;;;;;;5.65;2.97;;;;;;;;;;5021452;28;20402;-86
2022/10/27 15:04:25;;;;;;;10.23;3.10;;;;;;;;;;5031003;28;20411;-86
2022/10/27 15:06:52;;;;;;;5.70;3.40;;;;;;;;;;5030452;28;20379;-86
2022/10/27 15:09:26;;;;;;;6.15;3.08;;;;;;;;;;5031649;28;20449;-86
2022/10/27 15:11:52;;;;;;;6.32;3.10;;;;;;;;;;5034926;28;20811;-86
2022/10/27 15:14:18;;;;;;;6.88;3.05;;;;;;;;;;5034890;28;20383;-86
2022/10/27 15:16:47;;;;;;;6.00;3.13;;;;;;;;;;5034856;28;20910;-86
2022/10/27 15:19:15;;;;;;;4.80;2.70;;;;;;;;;;5034818;28;20387;-86
2022/10/27 15:21:41;;;;;;;6.90;3.08;;;;;;;;;;5034932;28;20454;-86
2022/10/27 15:24:07;;;;;;;5.50;3.07;;;;;;;;;;5034883;28;20488;-86
2022/10/27 15:26:34;;;;;;;8.07;3.17;;;;;;;;;;5028711;28;20953;-85
2022/10/27 15:29:03;;;;;;;7.05;3.33;;;;;;;;;;5030335;28;20744;-85
2022/10/27 15:31:41;;;;;;;8.20;3.83;;;;;;;;;;5034591;28;20911;-86
2022/10/27 15:34:22;;;;;;;4.30;3.30;;;;;;;;;;5034719;28;20849;-86
2022/10/27 15:36:50;;;;;;;5.25;3.15;;;;;;;;;;5024212;28;20389;-86
2022/10/27 15:39:19;;;;;;;7.18;3.13;;;;;;;;;;5030922;28;20398;-85
2022/10/27 15:41:46;;;;;;;4.43;2.90;;;;;;;;;;5034415;28;20425;-85
2022/10/27 15:44:15;;;;;;;5.53;3.00;;;;;;;;;;5034196;28;20414;-87
2022/10/27 15:46:45;;;;;;;5.43;3.33;;;;;;;;;;5027431;28;20407;-87
2022/10/27 15:49:30;;;;;;;5.70;3.42;;;;;;;;;;5028028;28;20383;-86
2022/10/27 15:51:56;;;;;;;5.93;3.10;;;;;;;;;;5034286;28;20428;-87
2022/10/27 15:54:47;;;;;;;6.82;3.05;;;;;;;;;;5034204;28;20850;-86
2022/10/27 15:57:30;;;;;;;6.47;4.32;;;;;;;;;;5034255;28;20395;-87
2022/10/27 16:00:05;;;;;;;7.65;4.80;;;;;;;;;;5033937;28;20475;-87
2022/10/27 16:02:35;;;;;;;6.03;3.90;;;;;;;;;;5016937;28;20410;-84
2022/10/27 16:05:20;;;;;;;11.30;4.30;;;;;;;;;;5034063;28;20383;-85
2022/10/27 16:07:46;;;;;;;7.53;4.17;;;;;;;;;;5032540;28;20801;-86
2022/10/27 16:10:14;;;;;;;6.47;4.28;;;;;;;;;;5033407;28;20407;-87
2022/10/27 16:12:41;;;;;;;9.38;4.88;;;;;;;;;;5034102;28;20429;-86
2022/10/27 16:15:15;;;;;;;12.60;4.45;;;;;;;;;;5019456;28;20378;-86
2022/10/27 16:17:46;;;;;;;15.43;4.87;;;;;;;;;;5007217;28;20371;-86
2022/10/27 16:20:20;;;;;;;9.90;4.13;;;;;;;;;;5015928;28;20387;-86
2022/10/27 16:22:55;;;;;;;7.28;3.95;;;;;;;;;;5032894;28;20895;-86
2022/10/27 16:25:25;;;;;;;11.43;4.32;;;;;;;;;;5033659;28;20883;-86
2022/10/27 16:27:51;;;;;;;7.43;3.50;;;;;;;;;;5033491;28;20364;-86
2022/10/27 16:30:44;;;;;;;10.88;3.90;;;;;;;;;;5031781;28;20379;-85
2022/10/27 16:33:16;;;;;;;19.02;5.13;;;;;;;;;;5009530;28;21581;-85
2022/10/27 16:35:43;;;;;;;7.60;3.90;;;;;;;;;;5033618;28;20520;-85
2022/10/27 16:38:09;;;;;;;5.97;3.25;;;;;;;;;;5033442;28;20387;-86
2022/10/27 16:40:36;;;;;;;6.55;3.80;;;;;;;;;;5033251;28;20929;-86
2022/10/27 16:43:05;;;;;;;8.50;3.75;;;;;;;;;;5033091;28;20916;-86
2022/10/27 16:45:34;;;;;;;7.47;3.35;;;;;;;;;;5033213;28;20576;-86
2022/10/27 16:48:00;;;;;;;5.95;3.67;;;;;;;;;;5033183;28;20430;-87
2022/10/27 16:50:26;;;;;;;7.03;3.25;;;;;;;;;;5033142;28;20379;-86
2022/10/27 16:52:53;;;;;;;5.20;3.40;;;;;;;;;;5046086;23;20512;-88
2022/10/27 16:55:19;;;;;;;5.88;3.20;;;;;;;;;;5041583;28;20402;-88
2022/10/27 16:57:45;;;;;;;6.80;3.50;;;;;;;;;;5052481;28;20385;-88
2022/10/27 17:00:12;;;;;;;10.93;3.88;;;;;;;;;;5046258;28;20531;-89
2022/10/27 17:02:38;;;;;;;9.05;3.33;;;;;;;;;;5046877;28;20382;-87
2022/10/27 17:05:06;;;;;;;9.13;3.50;;;;;;;;;;5052801;28;20471;-88
2022/10/27 17:07:32;;;;;;;7.85;3.55;;;;;;;;;;5052663;28;20417;-88
2022/10/27 17:09:58;;;;;;;8.43;3.70;;;;;;;;;;5052598;28;20381;-90
2022/10/27 17:12:24;;;;;;;5.43;3.17;;;;;;;;;;5048642;28;20390;-89
2022/10/27 17:14:50;;;;;;;7.07;3.83;;;;;;;;;;5052548;28;20858;-86
2022/10/27 17:17:16;;;;;;;6.75;3.50;;;;;;;;;;5052651;28;20394;-88
2022/10/27 17:19:42;;;;;;;7.75;3.15;;;;;;;;;;5043686;28;20387;-88
2022/10/27 17:22:08;;;;;;;7.05;3.17;;;;;;;;;;5045837;28;20378;-87
2022/10/27 17:24:34;;;;;;;6.63;3.63;;;;;;;;;;5052371;28;20405;-89
2022/10/27 17:27:00;;;;;;;7.00;3.30;;;;;;;;;;5052516;28;20433;-88
2022/10/27 17:29:26;;;;;;;7.32;4.30;;;;;;;;;;5052220;28;20783;-88
2022/10/27 17:31:52;;;;;;;5.38;3.40;;;;;;;;;;5052275;28;20405;-87
2022/10/27 17:34:18;;;;;;;4.68;3.75;;;;;;;;;;5037366;28;20465;-89
2022/10/27 17:36:44;;;;;;;6.68;3.83;;;;;;;;;;5052193;28;20445;-93
2022/10/27 17:39:10;;;;;;;5.32;3.70;;;;;;;;;;5052264;28;20369;-88
2022/10/27 17:41:36;;;;;;;8.23;4.35;;;;;;;;;;5050149;28;20390;-88
2022/10/27 17:44:02;;;;;;;4.28;3.20;;;;;;;;;;5043071;28;20408;-89
2022/10/27 17:46:28;;;;;;;6.18;3.70;;;;;;;;;;5052048;28;20867;-88
2022/10/27 17:48:58;;;;;;;6.63;3.72;;;;;;;;;;5045391;28;20375;-89
2022/10/27 17:51:25;;;;;;;8.30;3.50;;;;;;;;;;5047977;28;20468;-88
2022/10/27 17:53:52;;;;;;;5.95;3.20;;;;;;;;;;5051937;28;20393;-86
2022/10/27 17:56:22;;;;;;;18.55;4.30;;;;;;;;;;5051962;28;20396;-89
2022/10/27 17:58:48;;;;;;;8.57;3.15;;;;;;;;;;5052153;28;20385;-89
2022/10/27 18:01:15;;;;;;;6.63;3.73;;;;;;;;;;5052211;28;20833;-89
2022/10/27 18:03:41;;;;;;;8.02;3.50;;;;;;;;;;5051692;28;20401;-89
2022/10/27 18:06:09;;;;;;;10.50;3.57;;;;;;;;;;5052242;28;20473;-89
2022/10/27 18:08:38;;;;;;;9.02;3.60;;;;;;;;;;5046250;28;20432;-88
2022/10/27 18:11:08;;;;;;;8.15;4.60;;;;;;;;;;5020736;28;20755;-87
2022/10/27 18:13:44;;;;;;;9.00;6.05;;;;;;;;;;5021378;28;20411;-87
2022/10/27 18:16:22;;;;;;;6.43;5.70;;;;;;;;;;5032957;28;20405;-87
2022/10/27 18:18:53;;;;;;;7.28;5.53;;;;;;;;;;5030198;28;20394;-89
2022/10/27 18:21:25;;;;;;;5.18;3.85;;;;;;;;;;5033798;28;20406;-87
2022/10/27 18:24:02;;;;;;;8.15;4.22;;;;;;;;;;5024818;28;20415;-88
2022/10/27 18:26:33;;;;;;;9.13;4.73;;;;;;;;;;5026804;28;20456;-87
2022/10/27 18:29:01;;;;;;;7.43;4.28;;;;;;;;;;5035942;28;20483;-87
2022/10/27 18:31:29;;;;;;;6.78;3.85;;;;;;;;;;5024126;28;20400;-87
2022/10/27 18:33:55;;;;;;;5.63;3.77;;;;;;;;;;5035711;28;20393;-87
2022/10/27 18:36:22;;;;;;;6.32;3.65;;;;;;;;;;5036265;28;20446;-88
2022/10/27 18:38:52;;;;;;;7.45;4.07;;;;;;;;;;5035223;28;20431;-87
2022/10/27 18:41:21;;;;;;;6.57;4.13;;;;;;;;;;5039630;28;20431;-88
2022/10/27 18:43:47;;;;;;;5.75;4.68;;;;;;;;;;5015166;28;20409;-89
2022/10/27 18:46:14;;;;;;;5.50;5.00;;;;;;;;;;5009290;28;20387;-88
2022/10/27 18:48:42;;;;;;;7.85;5.22;;;;;;;;;;5030615;28;20406;-88
2022/10/27 18:51:20;;;;;;;9.63;5.93;;;;;;;;;;5032628;28;20809;-89
2022/10/27 18:53:47;;;;;;;8.25;7.40;;;;;;;;;;5045146;28;20400;-88
2022/10/27 18:56:22;;;;;;;10.93;4.97;;;;;;;;;;5061033;28;20388;-88
2022/10/27 18:58:55;;;;;;;8.65;4.57;;;;;;;;;;5037454;28;20754;-88
2022/10/27 19:01:31;;;;;;;24.30;5.20;;;;;;;;;;5055099;28;20382;-88
2022/10/27 19:03:58;;;;;;;8.98;5.07;;;;;;;;;;5055953;28;20405;-88